createdAt,value
2019-03-29T00:00:44.510Z,99.90
2019-03-29T00:03:13.148Z,99.90
2019-03-29T00:05:41.777Z,99.90
2019-03-29T00:08:10.414Z,99.90
2019-03-29T00:10:38.995Z,99.90
2019-03-29T00:13:07.554Z,99.90
2019-03-29T00:15:36.134Z,99.90
2019-03-29T00:18:04.706Z,99.90
2019-03-29T00:20:33.410Z,99.90
2019-03-29T00:23:02.072Z,99.90
2019-03-29T00:25:30.635Z,99.90
2019-03-29T00:27:59.214Z,99.90
2019-03-29T00:30:27.938Z,99.90
2019-03-29T00:32:57.835Z,99.90
2019-03-29T00:35:26.553Z,99.90
2019-03-29T00:37:55.887Z,99.90
2019-03-29T00:40:24.722Z,99.90
2019-03-29T00:42:53.745Z,99.90
2019-03-29T00:45:22.334Z,99.90
2019-03-29T00:47:50.903Z,99.90
2019-03-29T00:50:19.502Z,99.90
2019-03-29T00:52:48.054Z,99.90
2019-03-29T00:55:16.632Z,99.90
2019-03-29T00:57:45.198Z,99.90
2019-03-29T01:00:14.115Z,99.90
2019-03-29T01:02:42.952Z,99.90
2019-03-29T01:05:11.894Z,99.90
2019-03-29T01:07:40.458Z,99.90
2019-03-29T01:10:09.168Z,99.90
2019-03-29T01:12:37.738Z,99.90
2019-03-29T01:15:09.061Z,99.90
2019-03-29T01:17:37.999Z,99.90
2019-03-29T01:20:08.374Z,99.90
2019-03-29T01:22:36.946Z,99.90
2019-03-29T01:25:07.995Z,99.90
2019-03-29T01:27:36.802Z,99.90
2019-03-29T01:30:07.174Z,99.90
2019-03-29T01:32:35.883Z,99.90
2019-03-29T01:35:06.998Z,99.90
2019-03-29T01:37:35.718Z,99.90
2019-03-29T01:40:05.430Z,99.90
2019-03-29T01:42:34.066Z,99.90
2019-03-29T01:45:02.711Z,99.90
2019-03-29T01:47:31.274Z,99.90
2019-03-29T01:49:59.850Z,99.90
2019-03-29T01:52:31.494Z,99.90
2019-03-29T01:54:58.734Z,99.90
2019-03-29T01:57:27.302Z,99.90
2019-03-29T01:59:55.938Z,99.90
2019-03-29T02:02:24.521Z,99.90
2019-03-29T02:04:53.090Z,99.90
2019-03-29T02:07:21.734Z,99.90
2019-03-29T02:09:50.310Z,99.90
2019-03-29T02:12:18.886Z,99.90
2019-03-29T02:14:47.722Z,99.90
2019-03-29T02:17:16.400Z,99.90
2019-03-29T02:19:45.066Z,99.90
2019-03-29T02:22:13.634Z,99.90
2019-03-29T02:24:42.213Z,99.90
2019-03-29T02:27:10.851Z,99.90
2019-03-29T02:29:39.434Z,99.90
2019-03-29T02:32:08.003Z,99.90
2019-03-29T02:34:36.586Z,99.90
2019-03-29T02:37:05.182Z,99.90
2019-03-29T02:39:33.799Z,99.90
2019-03-29T02:42:02.427Z,99.90
2019-03-29T02:44:30.995Z,99.90
2019-03-29T02:46:59.574Z,99.90
2019-03-29T02:49:28.150Z,99.90
2019-03-29T02:51:56.730Z,99.90
2019-03-29T02:54:25.294Z,99.90
2019-03-29T02:56:53.947Z,99.90
2019-03-29T02:59:22.508Z,99.90
2019-03-29T03:01:51.103Z,99.90
2019-03-29T03:04:19.675Z,99.90
2019-03-29T03:06:48.239Z,99.90
2019-03-29T03:09:16.890Z,99.90
2019-03-29T03:11:45.459Z,99.90
2019-03-29T03:14:14.107Z,99.90
2019-03-29T03:16:42.720Z,99.90
2019-03-29T03:19:11.291Z,99.90
2019-03-29T03:21:39.926Z,99.90
2019-03-29T03:24:08.581Z,99.90
2019-03-29T03:26:37.218Z,99.90
2019-03-29T03:29:05.895Z,99.90
2019-03-29T03:31:34.479Z,99.90
2019-03-29T03:34:03.652Z,99.90
2019-03-29T03:36:32.187Z,99.90
2019-03-29T03:39:00.759Z,99.90
2019-03-29T03:41:29.670Z,99.90
2019-03-29T03:43:58.314Z,99.90
2019-03-29T03:46:27.356Z,99.90
2019-03-29T03:48:55.986Z,99.90
2019-03-29T03:51:24.697Z,99.90
2019-03-29T03:53:53.739Z,99.90
2019-03-29T03:56:22.842Z,99.90
2019-03-29T03:58:52.163Z,99.90
2019-03-29T04:01:20.819Z,99.90
2019-03-29T04:03:49.376Z,99.90
2019-03-29T04:06:17.943Z,99.90
2019-03-29T04:08:46.547Z,99.90
2019-03-29T04:11:15.107Z,99.90
2019-03-29T04:13:43.687Z,99.90
2019-03-29T04:16:12.261Z,99.90
2019-03-29T04:18:40.836Z,99.90
2019-03-29T04:21:09.430Z,99.90
2019-03-29T04:23:38.070Z,99.90
2019-03-29T04:26:06.647Z,99.90
2019-03-29T04:28:35.235Z,99.90
2019-03-29T04:31:04.092Z,99.90
2019-03-29T04:33:32.663Z,99.90
2019-03-29T04:36:01.242Z,99.90
2019-03-29T04:38:29.822Z,99.90
2019-03-29T04:40:58.411Z,99.90
2019-03-29T04:43:26.986Z,99.90
2019-03-29T04:45:55.572Z,99.90
2019-03-29T04:48:24.215Z,99.90
2019-03-29T04:50:52.840Z,99.90
2019-03-29T04:53:21.425Z,99.90
2019-03-29T04:55:50.043Z,99.90
2019-03-29T04:58:18.622Z,99.90
2019-03-29T05:00:47.367Z,99.90
2019-03-29T05:03:16.134Z,99.90
2019-03-29T05:05:44.784Z,99.90
2019-03-29T05:08:13.362Z,99.90
2019-03-29T05:10:41.944Z,99.90
2019-03-29T05:13:10.581Z,99.90
2019-03-29T05:15:39.198Z,99.90
2019-03-29T05:18:07.834Z,99.90
2019-03-29T05:20:36.414Z,99.90
2019-03-29T05:23:04.997Z,99.90
2019-03-29T05:25:33.706Z,99.90
2019-03-29T05:28:02.342Z,99.90
2019-03-29T05:30:30.914Z,99.90
2019-03-29T05:32:59.509Z,99.90
2019-03-29T05:35:29.682Z,99.90
2019-03-29T05:37:58.278Z,99.90
2019-03-29T05:40:34.962Z,99.90
2019-03-29T05:42:57.217Z,99.90
2019-03-29T05:45:25.806Z,99.90
2019-03-29T05:47:54.394Z,99.90
2019-03-29T05:50:22.971Z,99.90
2019-03-29T05:52:51.546Z,99.90
2019-03-29T05:55:32.015Z,99.90
2019-03-29T05:57:50.341Z,99.90
2019-03-29T06:00:19.454Z,99.90
2019-03-29T06:02:48.023Z,99.90
2019-03-29T06:05:16.682Z,99.90
2019-03-29T06:07:45.259Z,99.90
2019-03-29T06:10:13.966Z,99.90
2019-03-29T06:12:42.547Z,99.90
2019-03-29T06:15:11.258Z,99.90
2019-03-29T06:17:48.663Z,99.90
2019-03-29T06:20:10.408Z,99.90
2019-03-29T06:22:38.991Z,99.90
2019-03-29T06:25:08.399Z,99.90
2019-03-29T06:27:37.095Z,99.90
2019-03-29T06:30:07.901Z,99.90
2019-03-29T06:32:36.558Z,99.90
2019-03-29T06:35:07.334Z,99.90
2019-03-29T06:37:37.040Z,99.90
2019-03-29T06:40:08.707Z,99.90
2019-03-29T06:42:39.215Z,99.90
2019-03-29T06:45:07.746Z,99.90
2019-03-29T06:47:36.494Z,99.90
2019-03-29T06:50:07.286Z,99.90
2019-03-29T06:52:35.835Z,99.90
2019-03-29T06:55:04.943Z,99.90
2019-03-29T06:57:33.534Z,99.90
2019-03-29T07:00:03.388Z,99.90
2019-03-29T07:02:51.401Z,99.90
2019-03-29T07:05:20.053Z,99.90
2019-03-29T07:07:48.619Z,99.90
2019-03-29T07:10:17.251Z,99.90
2019-03-29T07:12:45.830Z,99.90
2019-03-29T07:15:14.556Z,99.90
2019-03-29T07:17:43.163Z,99.90
2019-03-29T07:20:11.869Z,99.90
2019-03-29T07:22:40.498Z,99.90
2019-03-29T07:25:09.914Z,99.90
2019-03-29T07:27:44.617Z,99.90
2019-03-29T07:30:09.754Z,99.90
2019-03-29T07:32:38.393Z,99.90
2019-03-29T07:35:08.012Z,99.90
2019-03-29T07:37:36.578Z,99.90
2019-03-29T07:40:05.602Z,99.90
2019-03-29T07:42:34.170Z,99.90
2019-03-29T07:45:03.018Z,99.90
2019-03-29T07:47:31.598Z,99.90
2019-03-29T07:50:00.362Z,99.90
2019-03-29T07:52:28.951Z,99.90
2019-03-29T07:54:57.518Z,99.90
2019-03-29T07:57:26.097Z,99.90
2019-03-29T07:59:54.830Z,99.90
2019-03-29T08:02:42.751Z,99.90
2019-03-29T08:05:11.566Z,99.90
2019-03-29T08:07:40.148Z,99.90
2019-03-29T08:10:09.066Z,99.90
2019-03-29T08:12:40.432Z,99.90
2019-03-29T08:15:09.822Z,99.90
2019-03-29T08:17:38.686Z,99.90
2019-03-29T08:20:37.369Z,99.90
2019-03-29T08:22:37.728Z,99.90
2019-03-29T08:25:06.550Z,99.90
2019-03-29T08:27:35.124Z,99.90
2019-03-29T08:30:04.587Z,99.90
2019-03-29T08:32:33.168Z,99.00
2019-03-29T08:35:01.741Z,97.40
2019-03-29T08:37:30.329Z,99.90
2019-03-29T08:39:58.974Z,99.90
2019-03-29T08:42:27.626Z,99.10
2019-03-29T08:44:56.200Z,99.70
2019-03-29T08:47:24.788Z,97.50
2019-03-29T08:49:53.406Z,97.70
2019-03-29T08:52:22.001Z,97.80
2019-03-29T08:54:51.291Z,97.70
2019-03-29T08:57:20.094Z,97.30
2019-03-29T08:59:48.679Z,94.00
2019-03-29T09:02:17.250Z,92.30
2019-03-29T09:04:45.895Z,95.60
2019-03-29T09:07:14.470Z,99.20
2019-03-29T09:09:46.266Z,97.00
2019-03-29T09:12:14.986Z,95.80
2019-03-29T09:14:43.875Z,94.80
2019-03-29T09:17:12.558Z,94.50
2019-03-29T09:19:41.098Z,96.10
2019-03-29T09:22:09.678Z,97.00
2019-03-29T09:24:38.256Z,99.00
2019-03-29T09:27:06.836Z,97.60
2019-03-29T09:29:35.405Z,97.40
2019-03-29T09:32:04.128Z,99.00
2019-03-29T09:34:32.698Z,99.60
2019-03-29T09:37:01.290Z,98.00
2019-03-29T09:39:29.860Z,96.70
2019-03-29T09:41:58.448Z,97.40
2019-03-29T09:44:27.027Z,98.50
2019-03-29T09:46:55.594Z,99.90
2019-03-29T09:49:24.182Z,98.10
2019-03-29T09:51:52.818Z,97.10
2019-03-29T09:54:21.416Z,96.00
2019-03-29T09:56:49.988Z,96.50
2019-03-29T09:59:18.934Z,96.10
2019-03-29T10:01:47.510Z,97.00
2019-03-29T10:04:16.103Z,95.10
2019-03-29T10:06:44.679Z,94.40
2019-03-29T10:09:13.362Z,96.80
2019-03-29T10:11:41.946Z,96.10
2019-03-29T10:14:10.524Z,95.60
2019-03-29T10:16:39.104Z,93.00
2019-03-29T10:19:07.675Z,93.60
2019-03-29T10:21:36.334Z,93.30
2019-03-29T10:24:05.062Z,95.10
2019-03-29T10:26:33.670Z,94.80
2019-03-29T10:29:02.214Z,95.50
2019-03-29T10:31:32.517Z,97.50
2019-03-29T10:34:01.027Z,95.50
2019-03-29T10:36:29.775Z,94.60
2019-03-29T10:38:58.358Z,92.20
2019-03-29T10:41:26.950Z,90.30
2019-03-29T10:43:55.547Z,91.50
2019-03-29T10:46:24.201Z,91.80
2019-03-29T10:48:52.935Z,92.10
2019-03-29T10:51:21.519Z,93.60
2019-03-29T10:53:50.090Z,92.20
2019-03-29T10:56:32.941Z,91.80
2019-03-29T10:58:48.890Z,90.90
2019-03-29T11:01:17.478Z,90.80
2019-03-29T11:03:46.119Z,93.10
2019-03-29T11:06:14.706Z,91.70
2019-03-29T11:08:43.660Z,87.80
2019-03-29T11:11:12.472Z,84.20
2019-03-29T11:13:41.421Z,83.30
2019-03-29T11:16:10.175Z,87.70
2019-03-29T11:18:38.782Z,82.90
2019-03-29T11:21:07.542Z,82.60
2019-03-29T11:23:36.129Z,82.10
2019-03-29T11:26:04.853Z,79.50
2019-03-29T11:28:33.487Z,83.30
2019-03-29T11:31:02.055Z,78.70
2019-03-29T11:33:30.694Z,87.00
2019-03-29T11:35:59.282Z,91.20
2019-03-29T11:38:27.854Z,91.90
2019-03-29T11:40:56.513Z,92.60
2019-03-29T11:43:27.231Z,91.80
2019-03-29T11:45:55.386Z,90.60
2019-03-29T11:48:24.095Z,89.80
2019-03-29T11:50:52.688Z,87.00
2019-03-29T11:53:21.264Z,84.00
2019-03-29T11:55:49.842Z,83.70
2019-03-29T11:58:18.495Z,75.80
2019-03-29T12:00:47.133Z,79.30
2019-03-29T12:03:15.960Z,75.00
2019-03-29T12:05:44.598Z,82.90
2019-03-29T12:08:13.318Z,85.80
2019-03-29T12:10:42.059Z,81.10
2019-03-29T12:13:11.285Z,81.70
2019-03-29T12:15:40.175Z,81.80
2019-03-29T12:18:08.990Z,73.90
2019-03-29T12:20:37.718Z,73.20
2019-03-29T12:23:06.290Z,75.10
2019-03-29T12:25:34.871Z,79.70
2019-03-29T12:28:03.709Z,81.20
2019-03-29T12:30:32.932Z,75.90
2019-03-29T12:33:01.570Z,72.80
2019-03-29T12:35:30.154Z,75.60
2019-03-29T12:37:58.727Z,76.50
2019-03-29T12:40:27.319Z,70.70
2019-03-29T12:42:55.890Z,69.10
2019-03-29T12:45:24.532Z,71.30
2019-03-29T12:47:53.121Z,69.90
2019-03-29T12:50:21.702Z,66.90
2019-03-29T12:52:50.358Z,69.20
2019-03-29T12:55:18.922Z,65.70
2019-03-29T12:57:47.508Z,68.60
2019-03-29T13:00:17.121Z,67.00
2019-03-29T13:02:45.779Z,73.40
2019-03-29T13:05:14.598Z,73.20
2019-03-29T13:07:43.171Z,71.10
2019-03-29T13:10:12.479Z,65.80
2019-03-29T13:12:41.107Z,63.10
2019-03-29T13:15:10.118Z,62.80
2019-03-29T13:17:38.838Z,61.10
2019-03-29T13:20:08.557Z,62.00
2019-03-29T13:22:37.194Z,60.80
2019-03-29T13:25:07.605Z,58.10
2019-03-29T13:27:36.650Z,61.20
2019-03-29T13:30:10.610Z,62.20
2019-03-29T13:32:39.319Z,63.50
2019-03-29T13:35:08.522Z,63.10
2019-03-29T13:37:37.242Z,64.50
2019-03-29T13:40:08.419Z,66.20
2019-03-29T13:42:37.194Z,63.20
2019-03-29T13:45:10.594Z,65.10
2019-03-29T13:47:39.264Z,64.30
2019-03-29T13:50:09.870Z,60.90
2019-03-29T13:52:38.461Z,61.80
2019-03-29T13:55:07.590Z,61.10
2019-03-29T13:57:36.256Z,63.00
2019-03-29T14:00:11.129Z,64.70
2019-03-29T14:02:40.082Z,63.50
2019-03-29T14:05:08.826Z,61.00
2019-03-29T14:07:37.466Z,60.20
2019-03-29T14:10:07.795Z,61.80
2019-03-29T14:12:37.101Z,65.10
2019-03-29T14:15:09.134Z,65.70
2019-03-29T14:17:37.710Z,65.30
2019-03-29T14:20:07.118Z,67.20
2019-03-29T14:22:35.702Z,64.90
2019-03-29T14:25:06.720Z,64.50
2019-03-29T14:27:35.302Z,64.90
2019-03-29T14:30:05.919Z,65.00
2019-03-29T14:32:34.506Z,64.30
2019-03-29T14:35:04.127Z,62.60
2019-03-29T14:37:32.718Z,61.50
2019-03-29T14:40:01.327Z,61.30
2019-03-29T14:42:29.986Z,59.40
2019-03-29T14:44:58.574Z,60.80
2019-03-29T14:47:39.713Z,62.10
2019-03-29T14:49:57.458Z,60.20
2019-03-29T14:52:26.034Z,59.80
2019-03-29T14:54:54.693Z,60.30
2019-03-29T14:57:23.262Z,62.10
2019-03-29T14:59:51.854Z,61.40
2019-03-29T15:02:22.188Z,61.70
2019-03-29T15:04:50.650Z,61.50
2019-03-29T15:07:20.378Z,62.00
2019-03-29T15:09:49.286Z,62.50
2019-03-29T15:12:17.862Z,61.10
2019-03-29T15:14:46.450Z,64.10
2019-03-29T15:17:15.031Z,63.40
2019-03-29T15:19:43.606Z,62.50
2019-03-29T15:22:12.194Z,65.30
2019-03-29T15:24:40.846Z,64.90
2019-03-29T15:27:09.421Z,65.00
2019-03-29T15:29:38.004Z,64.20
2019-03-29T15:32:06.641Z,65.20
2019-03-29T15:34:35.222Z,64.50
2019-03-29T15:37:03.798Z,64.50
2019-03-29T15:39:32.382Z,66.30
2019-03-29T15:42:01.134Z,69.10
2019-03-29T15:44:29.850Z,73.10
2019-03-29T15:46:58.494Z,77.10
2019-03-29T15:49:27.161Z,81.70
2019-03-29T15:51:55.743Z,81.20
2019-03-29T15:54:24.308Z,84.30
2019-03-29T15:56:52.970Z,85.70
2019-03-29T15:59:21.542Z,88.10
2019-03-29T16:01:50.122Z,87.30
2019-03-29T16:04:18.702Z,89.50
2019-03-29T16:06:47.351Z,90.00
2019-03-29T16:09:15.999Z,89.40
2019-03-29T16:11:44.571Z,90.30
2019-03-29T16:14:13.170Z,88.40
2019-03-29T16:16:42.073Z,89.20
2019-03-29T16:19:10.637Z,90.50
2019-03-29T16:21:39.210Z,90.70
2019-03-29T16:24:07.860Z,90.70
2019-03-29T16:26:36.506Z,91.10
2019-03-29T16:29:05.239Z,91.30
2019-03-29T16:31:33.806Z,91.60
2019-03-29T16:34:02.623Z,92.50
2019-03-29T16:36:31.230Z,92.60
2019-03-29T16:38:59.894Z,92.80
2019-03-29T16:41:28.477Z,93.30
2019-03-29T16:43:57.046Z,93.80
2019-03-29T16:46:25.629Z,93.80
2019-03-29T16:48:54.268Z,94.00
2019-03-29T16:51:22.855Z,94.50
2019-03-29T16:53:51.426Z,95.00
2019-03-29T16:56:20.454Z,95.20
2019-03-29T16:58:49.027Z,95.60
2019-03-29T17:01:17.662Z,95.60
2019-03-29T17:03:46.243Z,96.10
2019-03-29T17:06:15.022Z,95.90
2019-03-29T17:08:43.606Z,96.20
2019-03-29T17:11:12.178Z,96.60
2019-03-29T17:13:40.758Z,97.00
2019-03-29T17:16:09.332Z,97.20
2019-03-29T17:18:40.119Z,97.30
2019-03-29T17:21:08.246Z,97.30
2019-03-29T17:23:36.951Z,97.50
2019-03-29T17:26:05.686Z,98.00
2019-03-29T17:28:34.254Z,97.80
2019-03-29T17:31:07.768Z,98.20
2019-03-29T17:33:36.342Z,98.30
2019-03-29T17:36:05.135Z,98.30
2019-03-29T17:38:33.706Z,98.50
2019-03-29T17:41:02.415Z,98.70
2019-03-29T17:43:30.988Z,98.90
2019-03-29T17:45:59.571Z,99.10
2019-03-29T17:48:28.154Z,99.20
2019-03-29T17:50:56.753Z,99.60
2019-03-29T17:53:25.402Z,99.10
2019-03-29T17:55:54.122Z,99.20
2019-03-29T17:58:22.778Z,98.80
2019-03-29T18:00:51.418Z,99.00
2019-03-29T18:03:20.254Z,99.00
2019-03-29T18:05:48.881Z,99.10
2019-03-29T18:08:17.591Z,98.80
2019-03-29T18:10:46.242Z,98.70
2019-03-29T18:13:14.882Z,98.60
2019-03-29T18:15:43.622Z,98.70
2019-03-29T18:18:13.209Z,98.90
2019-03-29T18:20:42.234Z,99.50
2019-03-29T18:23:10.798Z,99.40
2019-03-29T18:25:39.671Z,99.60
2019-03-29T18:28:08.307Z,99.90
2019-03-29T18:30:39.678Z,99.90
2019-03-29T18:33:08.496Z,99.90
2019-03-29T18:35:37.297Z,99.90
2019-03-29T18:38:06.019Z,99.90
2019-03-29T18:40:34.654Z,99.90
2019-03-29T18:43:03.370Z,99.90
2019-03-29T18:45:32.031Z,99.90
2019-03-29T18:48:00.806Z,99.90
2019-03-29T18:50:29.380Z,99.90
2019-03-29T18:52:58.116Z,99.90
2019-03-29T18:55:26.826Z,99.60
2019-03-29T18:57:55.394Z,99.40
2019-03-29T19:00:29.298Z,99.40
2019-03-29T19:02:57.934Z,99.30
2019-03-29T19:05:27.631Z,99.60
2019-03-29T19:07:56.218Z,99.30
2019-03-29T19:10:25.014Z,98.60
2019-03-29T19:12:53.583Z,98.70
2019-03-29T19:15:22.313Z,98.30
2019-03-29T19:17:50.850Z,97.70
2019-03-29T19:20:27.387Z,98.10
2019-03-29T19:22:49.899Z,98.30
2019-03-29T19:25:18.554Z,98.10
2019-03-29T19:27:47.201Z,98.10
2019-03-29T19:30:16.207Z,98.70
2019-03-29T19:32:44.786Z,99.00
2019-03-29T19:35:13.431Z,99.10
2019-03-29T19:37:42.146Z,99.30
2019-03-29T19:40:11.454Z,99.90
2019-03-29T19:42:40.032Z,99.90
2019-03-29T19:45:10.042Z,99.90
2019-03-29T19:47:38.606Z,99.90
2019-03-29T19:50:07.723Z,99.90
2019-03-29T19:52:36.297Z,99.90
2019-03-29T19:55:06.214Z,99.90
2019-03-29T19:57:34.838Z,99.90
2019-03-29T20:00:08.517Z,99.90
2019-03-29T20:02:37.210Z,99.90
2019-03-29T20:05:08.187Z,99.90
2019-03-29T20:07:37.034Z,99.90
2019-03-29T20:10:07.640Z,99.90
2019-03-29T20:12:36.281Z,99.90
2019-03-29T20:15:06.585Z,99.90
2019-03-29T20:17:35.166Z,99.90
2019-03-29T20:20:05.774Z,99.90
2019-03-29T20:22:34.391Z,99.90
2019-03-29T20:25:03.038Z,99.90
2019-03-29T20:27:31.606Z,99.90
2019-03-29T20:30:00.276Z,99.90
2019-03-29T20:32:28.855Z,99.90
2019-03-29T20:34:57.430Z,99.90
2019-03-29T20:37:26.067Z,99.90
2019-03-29T20:39:54.665Z,99.90
2019-03-29T20:42:24.921Z,99.90
2019-03-29T20:44:53.621Z,99.90
2019-03-29T20:47:23.624Z,99.90
2019-03-29T20:49:52.384Z,99.90
2019-03-29T20:52:21.098Z,99.90
2019-03-29T20:54:49.972Z,99.90
2019-03-29T20:57:18.569Z,99.90
2019-03-29T20:59:47.249Z,99.90
2019-03-29T21:02:15.777Z,99.90
2019-03-29T21:04:44.349Z,99.90
2019-03-29T21:07:12.998Z,99.90
2019-03-29T21:09:41.638Z,99.90
2019-03-29T21:12:10.319Z,99.90
2019-03-29T21:14:38.886Z,99.90
2019-03-29T21:17:07.554Z,99.90
2019-03-29T21:19:36.131Z,99.90
2019-03-29T21:22:05.067Z,99.90
2019-03-29T21:24:33.638Z,99.90
2019-03-29T21:27:02.210Z,99.90
2019-03-29T21:29:30.924Z,99.90
2019-03-29T21:31:59.642Z,99.90
2019-03-29T21:34:28.441Z,99.90
2019-03-29T21:36:57.223Z,99.90
2019-03-29T21:39:25.891Z,99.90
2019-03-29T21:41:54.442Z,99.90
2019-03-29T21:44:23.099Z,99.90
2019-03-29T21:46:51.803Z,99.90
2019-03-29T21:49:20.366Z,99.90
2019-03-29T21:51:49.077Z,99.90
2019-03-29T21:54:17.690Z,99.90
2019-03-29T21:56:46.367Z,99.90
2019-03-29T21:59:14.934Z,99.90
2019-03-29T22:01:43.523Z,99.90
2019-03-29T22:04:12.218Z,99.90
2019-03-29T22:06:40.854Z,99.90
2019-03-29T22:09:09.511Z,99.90
2019-03-29T22:11:38.256Z,99.90
2019-03-29T22:14:06.972Z,99.90
2019-03-29T22:16:35.538Z,99.90
2019-03-29T22:19:04.342Z,99.90
2019-03-29T22:21:32.903Z,99.90
2019-03-29T22:24:01.626Z,99.90
2019-03-29T22:26:30.210Z,99.90
2019-03-29T22:28:58.783Z,99.90
2019-03-29T22:31:27.359Z,99.90
2019-03-29T22:33:56.030Z,99.90
2019-03-29T22:36:24.616Z,99.90
2019-03-29T22:38:53.169Z,99.90
2019-03-29T22:41:21.855Z,99.90
2019-03-29T22:43:50.418Z,99.90
2019-03-29T22:46:19.010Z,99.90
2019-03-29T22:48:52.518Z,99.90
2019-03-29T22:51:17.915Z,99.90
2019-03-29T22:53:46.494Z,99.90
2019-03-29T22:56:15.062Z,99.90
2019-03-29T22:58:43.814Z,99.90
2019-03-29T23:01:12.626Z,99.90
2019-03-29T23:03:41.399Z,99.90
2019-03-29T23:06:09.980Z,99.90
2019-03-29T23:08:38.546Z,99.90
2019-03-29T23:11:07.126Z,99.90
2019-03-29T23:13:35.693Z,99.90
2019-03-29T23:16:04.413Z,99.90
2019-03-29T23:18:32.978Z,99.90
2019-03-29T23:21:01.561Z,99.90
2019-03-29T23:23:30.130Z,99.90
2019-03-29T23:25:58.726Z,99.90
2019-03-29T23:28:28.201Z,99.90
2019-03-29T23:30:56.775Z,99.90
2019-03-29T23:33:25.354Z,99.90
2019-03-29T23:35:53.932Z,99.90
2019-03-29T23:38:22.503Z,99.90
2019-03-29T23:40:51.070Z,99.90
2019-03-29T23:43:19.646Z,99.90
2019-03-29T23:45:48.226Z,99.90
2019-03-29T23:48:16.897Z,99.90
2019-03-29T23:50:45.484Z,99.90
2019-03-29T23:53:14.062Z,99.90
2019-03-29T23:55:42.638Z,99.90
2019-03-29T23:58:11.207Z,99.90
